createdAt,value
2023-01-19T00:10:51.242Z,-2.40
2023-01-19T00:15:46.202Z,-2.40
2023-01-19T00:25:44.300Z,-2.70
2023-01-19T00:30:42.065Z,-2.80
2023-01-19T00:33:13.597Z,-2.90
2023-01-19T00:35:42.551Z,-3.00
2023-01-19T00:38:11.742Z,-4.50
2023-01-19T00:48:02.014Z,-3.20
2023-01-19T00:50:32.052Z,-3.30
2023-01-19T00:53:01.481Z,-3.30
2023-01-19T00:55:30.753Z,-3.40
2023-01-19T01:02:54.789Z,-3.60
2023-01-19T01:05:22.605Z,-3.70
2023-01-19T01:10:25.420Z,-3.70
2023-01-19T01:18:07.893Z,-3.90
2023-01-19T01:20:36.925Z,-3.80
2023-01-19T01:23:04.400Z,-3.80
2023-01-19T01:25:37.271Z,-3.80
2023-01-19T01:28:08.715Z,-3.70
2023-01-19T01:30:40.812Z,-3.70
2023-01-19T01:33:08.864Z,-3.70
2023-01-19T01:35:35.858Z,-3.70
2023-01-19T01:45:40.774Z,-4.00
2023-01-19T01:48:26.917Z,-4.00
2023-01-19T01:51:25.495Z,-4.10
2023-01-19T01:54:16.814Z,-4.10
2023-01-19T01:56:51.937Z,-4.20
2023-01-19T01:59:34.615Z,-4.30
2023-01-19T02:02:28.982Z,-4.30
2023-01-19T02:05:24.749Z,-4.40
2023-01-19T02:08:21.150Z,-4.50
2023-01-19T02:11:07.839Z,-4.50
2023-01-19T02:13:43.678Z,-4.50
2023-01-19T02:16:12.760Z,-4.50
2023-01-19T02:18:40.686Z,-4.60
2023-01-19T02:21:33.305Z,-4.70
2023-01-19T02:24:02.869Z,-4.70
2023-01-19T02:26:44.424Z,-4.70
2023-01-19T02:29:20.266Z,-4.60
2023-01-19T02:34:21.004Z,-4.60
2023-01-19T02:37:06.408Z,-4.60
2023-01-19T02:39:56.750Z,-4.70
2023-01-19T02:42:35.878Z,-4.70
2023-01-19T02:45:06.719Z,-4.70
2023-01-19T02:47:46.937Z,-4.70
2023-01-19T02:50:35.833Z,-4.70
2023-01-19T02:53:36.377Z,-4.70
2023-01-19T02:56:37.229Z,-4.90
2023-01-19T02:59:15.529Z,-4.80
2023-01-19T03:02:26.386Z,-4.80
2023-01-19T03:05:33.981Z,-4.80
2023-01-19T03:08:40.767Z,-4.90
2023-01-19T03:11:13.793Z,-4.90
2023-01-19T03:14:01.650Z,-4.90
2023-01-19T03:16:55.000Z,-5.00
2023-01-19T03:19:46.606Z,-4.90
2023-01-19T03:22:22.770Z,-4.90
2023-01-19T03:24:55.329Z,-7.00
2023-01-19T03:27:33.695Z,-5.00
2023-01-19T03:30:11.492Z,-5.10
2023-01-19T03:32:50.051Z,-5.20
2023-01-19T03:35:21.835Z,-5.20
2023-01-19T03:37:55.028Z,-5.20
2023-01-19T03:40:24.870Z,-5.20
2023-01-19T03:42:52.504Z,-5.20
2023-01-19T03:47:49.420Z,-5.10
2023-01-19T03:50:30.104Z,-5.10
2023-01-19T03:53:17.337Z,-5.20
2023-01-19T03:55:48.624Z,-5.20
2023-01-19T03:58:15.745Z,-5.20
2023-01-19T04:03:17.160Z,-5.30
2023-01-19T04:05:45.520Z,-5.30
2023-01-19T04:08:13.180Z,-5.40
2023-01-19T04:13:07.649Z,-5.50
2023-01-19T04:18:02.265Z,-5.50
2023-01-19T04:20:29.760Z,-5.40
2023-01-19T04:23:01.530Z,-5.40
2023-01-19T04:25:29.414Z,-5.40
2023-01-19T04:27:58.240Z,-5.40
2023-01-19T04:30:27.433Z,-5.40
2023-01-19T04:32:55.387Z,-5.50
2023-01-19T04:35:23.521Z,-5.60
2023-01-19T04:37:50.803Z,-5.70
2023-01-19T04:40:17.991Z,-5.50
2023-01-19T04:42:46.143Z,-5.50
2023-01-19T04:45:14.920Z,-5.50
2023-01-19T04:50:11.720Z,-5.50
2023-01-19T04:55:07.849Z,-5.50
2023-01-19T04:57:34.892Z,-5.60
2023-01-19T05:07:25.045Z,-5.60
2023-01-19T05:12:19.979Z,-5.70
2023-01-19T05:14:47.340Z,-5.60
2023-01-19T05:17:14.352Z,-5.60
2023-01-19T05:19:41.494Z,-5.60
2023-01-19T05:22:08.452Z,-5.70
2023-01-19T05:24:35.490Z,-5.70
2023-01-19T05:27:02.551Z,-5.70
2023-01-19T05:29:29.532Z,-5.80
2023-01-19T05:31:56.607Z,-5.80
2023-01-19T05:36:51.505Z,-5.70
2023-01-19T05:39:18.504Z,-5.60
2023-01-19T05:41:45.534Z,-5.50
2023-01-19T05:46:41.115Z,-5.60
2023-01-19T05:51:38.289Z,-5.60
2023-01-19T05:54:07.030Z,-5.50
2023-01-19T05:56:35.730Z,-5.30
2023-01-19T05:59:02.818Z,-5.20
2023-01-19T06:03:58.366Z,-4.90
2023-01-19T06:06:25.503Z,-4.80
2023-01-19T06:08:55.971Z,-4.50
2023-01-19T06:11:23.503Z,-4.20
2023-01-19T06:13:51.532Z,-4.10
2023-01-19T06:16:18.723Z,-4.10
2023-01-19T06:21:14.380Z,-4.40
2023-01-19T06:23:41.881Z,-4.40
2023-01-19T06:26:09.315Z,-4.20
2023-01-19T06:28:37.261Z,-4.00
2023-01-19T06:31:05.203Z,-3.90
2023-01-19T06:33:32.653Z,-3.90
2023-01-19T06:38:28.657Z,-4.00
2023-01-19T06:40:58.814Z,-4.10
2023-01-19T06:43:26.780Z,-4.20
2023-01-19T06:45:54.680Z,-4.20
2023-01-19T06:48:22.239Z,-4.30
2023-01-19T06:50:49.908Z,-4.30
2023-01-19T06:53:19.774Z,-4.20
2023-01-19T07:03:21.532Z,-4.20
2023-01-19T07:05:53.439Z,-4.30
2023-01-19T07:08:20.978Z,-4.20
2023-01-19T07:13:38.333Z,-4.10
2023-01-19T07:16:14.559Z,-4.30
2023-01-19T07:21:09.781Z,-4.50
2023-01-19T07:23:38.027Z,-4.50
2023-01-19T07:26:05.283Z,-4.60
2023-01-19T07:38:23.639Z,-4.50
2023-01-19T07:45:45.501Z,-4.40
2023-01-19T07:48:12.534Z,-4.30
2023-01-19T07:50:39.619Z,-4.10
2023-01-19T07:53:09.041Z,-4.20
2023-01-19T07:55:36.239Z,-4.00
2023-01-19T07:58:07.310Z,-3.90
2023-01-19T08:00:38.101Z,-3.90
2023-01-19T08:03:05.567Z,-3.80
2023-01-19T08:05:33.762Z,-3.70
2023-01-19T08:10:28.994Z,-3.60
2023-01-19T08:12:57.848Z,-3.50
2023-01-19T08:15:25.539Z,-3.40
2023-01-19T08:18:02.680Z,-3.30
2023-01-19T08:20:30.155Z,-3.20
2023-01-19T08:25:42.428Z,-3.10
2023-01-19T08:28:11.308Z,-3.00
2023-01-19T08:30:40.337Z,-3.00
2023-01-19T08:35:48.759Z,-2.90
2023-01-19T08:38:17.068Z,-2.80
2023-01-19T08:40:44.622Z,-2.70
2023-01-19T08:43:16.492Z,-2.70
2023-01-19T08:45:51.157Z,-2.60
2023-01-19T08:48:23.455Z,-2.60
2023-01-19T08:50:52.773Z,-2.60
2023-01-19T08:56:02.340Z,-2.40
2023-01-19T08:58:29.728Z,-2.30
2023-01-19T09:04:03.571Z,-2.20
2023-01-19T09:06:30.607Z,-2.00
2023-01-19T09:08:57.603Z,-2.00
2023-01-19T09:11:24.700Z,-1.80
2023-01-19T09:13:51.803Z,-1.90
2023-01-19T09:16:18.840Z,-1.90
2023-01-19T09:21:14.943Z,-1.80
2023-01-19T09:23:42.273Z,-1.50
2023-01-19T09:26:10.267Z,-1.40
2023-01-19T09:28:38.483Z,-1.20
2023-01-19T09:31:09.822Z,-1.00
2023-01-19T09:33:36.916Z,-0.90
2023-01-19T09:36:04.263Z,-0.80
2023-01-19T09:38:32.803Z,-0.70
2023-01-19T09:41:01.260Z,-0.70
2023-01-19T09:43:54.890Z,-0.70
2023-01-19T09:46:38.725Z,-0.60
2023-01-19T09:49:40.419Z,-0.30
2023-01-19T09:52:15.549Z,-0.10
2023-01-19T09:54:58.931Z,-0.20
2023-01-19T09:57:28.030Z,-0.20
2023-01-19T09:59:57.873Z,-0.10
2023-01-19T10:02:42.485Z,-0.10
2023-01-19T10:05:31.290Z,0.00
2023-01-19T10:08:32.138Z,-0.10
2023-01-19T10:10:59.443Z,0.10
2023-01-19T10:13:47.156Z,0.30
2023-01-19T10:16:50.913Z,0.50
2023-01-19T10:19:46.836Z,0.50
2023-01-19T10:22:28.402Z,0.50
2023-01-19T10:25:07.035Z,0.90
2023-01-19T10:27:37.512Z,1.30
2023-01-19T10:30:10.066Z,1.40
2023-01-19T10:32:39.287Z,2.00
2023-01-19T10:35:24.052Z,2.50
2023-01-19T10:38:01.321Z,3.30
2023-01-19T10:40:49.658Z,3.80
2023-01-19T10:43:45.753Z,4.10
2023-01-19T10:46:35.191Z,4.70
2023-01-19T10:49:03.194Z,5.30
2023-01-19T10:51:30.416Z,5.30
2023-01-19T10:54:13.558Z,5.80
2023-01-19T10:56:58.668Z,4.80
2023-01-19T10:59:53.458Z,4.40
2023-01-19T11:02:34.619Z,3.80
2023-01-19T11:05:31.766Z,2.70
2023-01-19T11:07:59.198Z,2.00
2023-01-19T11:10:30.036Z,1.90
2023-01-19T11:13:12.399Z,1.50
2023-01-19T11:15:53.775Z,1.40
2023-01-19T11:18:36.553Z,1.40
2023-01-19T11:23:42.707Z,1.30
2023-01-19T11:26:24.975Z,1.10
2023-01-19T11:28:55.919Z,1.00
2023-01-19T11:31:29.026Z,1.00
2023-01-19T11:34:03.046Z,1.00
2023-01-19T11:36:35.350Z,0.90
2023-01-19T11:39:24.185Z,0.70
2023-01-19T11:41:57.245Z,0.70
2023-01-19T11:44:33.291Z,0.70
2023-01-19T11:47:06.647Z,0.70
2023-01-19T11:50:29.718Z,0.80
2023-01-19T11:53:18.970Z,0.80
2023-01-19T11:58:21.779Z,1.80
2023-01-19T12:01:24.407Z,1.70
2023-01-19T12:04:28.957Z,2.30
2023-01-19T12:07:00.053Z,2.40
2023-01-19T12:09:45.268Z,2.30
2023-01-19T12:12:32.358Z,2.10
2023-01-19T12:15:47.196Z,1.80
2023-01-19T12:18:28.487Z,1.50
2023-01-19T12:20:58.585Z,1.20
2023-01-19T12:24:13.178Z,1.30
2023-01-19T12:27:00.615Z,1.20
2023-01-19T12:29:35.134Z,1.00
2023-01-19T12:32:14.340Z,1.00
2023-01-19T12:34:48.189Z,0.90
2023-01-19T12:37:39.457Z,0.90
2023-01-19T12:40:28.811Z,0.80
2023-01-19T12:43:05.873Z,0.80
2023-01-19T12:45:36.405Z,0.80
2023-01-19T12:48:06.879Z,0.80
2023-01-19T12:50:38.014Z,0.80
2023-01-19T12:53:19.686Z,0.80
2023-01-19T12:56:00.954Z,0.80
2023-01-19T13:01:22.405Z,0.80
2023-01-19T13:04:30.756Z,0.80
2023-01-19T13:07:10.431Z,0.80
2023-01-19T13:09:43.203Z,0.90
2023-01-19T13:12:36.395Z,0.90
2023-01-19T13:15:37.737Z,1.00
2023-01-19T13:18:05.307Z,1.00
2023-01-19T13:21:14.033Z,1.00
2023-01-19T13:23:50.182Z,0.90
2023-01-19T13:26:40.170Z,1.00
2023-01-19T13:29:30.541Z,0.90
2023-01-19T13:32:13.116Z,0.80
2023-01-19T13:34:52.385Z,0.90
2023-01-19T13:37:26.365Z,1.00
2023-01-19T13:39:55.099Z,1.70
2023-01-19T13:42:35.665Z,3.00
2023-01-19T13:45:37.727Z,4.10
2023-01-19T13:48:17.120Z,5.30
2023-01-19T13:51:03.836Z,4.20
2023-01-19T13:53:32.446Z,3.20
2023-01-19T13:56:23.067Z,2.60
2023-01-19T13:59:13.432Z,2.40
2023-01-19T14:01:46.331Z,2.10
2023-01-19T14:04:34.870Z,1.80
2023-01-19T14:07:13.718Z,1.70
2023-01-19T14:09:40.750Z,1.50
2023-01-19T14:12:18.621Z,1.30
2023-01-19T14:14:48.122Z,1.20
2023-01-19T14:17:33.562Z,1.10
2023-01-19T14:22:57.930Z,0.80
2023-01-19T14:25:35.428Z,1.10
2023-01-19T14:28:30.027Z,1.00
2023-01-19T14:31:05.499Z,0.90
2023-01-19T14:33:46.797Z,0.90
2023-01-19T14:36:27.563Z,0.90
2023-01-19T14:38:59.575Z,0.90
2023-01-19T14:41:48.955Z,0.90
2023-01-19T14:44:33.917Z,0.80
2023-01-19T14:47:02.438Z,0.80
2023-01-19T14:49:36.561Z,0.80
2023-01-19T14:52:19.987Z,0.70
2023-01-19T14:54:49.173Z,0.70
2023-01-19T14:57:16.424Z,0.60
2023-01-19T14:59:49.487Z,0.60
2023-01-19T15:02:20.209Z,0.60
2023-01-19T15:04:55.062Z,0.60
2023-01-19T15:07:29.130Z,0.50
2023-01-19T15:12:31.020Z,0.50
2023-01-19T15:14:58.044Z,0.50
2023-01-19T15:19:57.401Z,0.50
2023-01-19T15:22:28.253Z,0.50
2023-01-19T15:27:27.640Z,0.30
2023-01-19T15:37:16.985Z,0.30
2023-01-19T15:39:44.051Z,0.30
2023-01-19T15:42:15.717Z,0.30
2023-01-19T15:44:42.764Z,0.20
2023-01-19T15:47:10.722Z,0.20
2023-01-19T15:49:38.774Z,0.10
2023-01-19T15:54:33.222Z,0.00
2023-01-19T15:59:27.595Z,-0.10
2023-01-19T16:06:50.032Z,-0.30
2023-01-19T16:09:19.855Z,-0.40
2023-01-19T16:11:46.878Z,-0.50
2023-01-19T16:16:46.009Z,-0.70
2023-01-19T16:19:15.894Z,-0.70
2023-01-19T16:21:43.880Z,-0.70
2023-01-19T16:26:38.301Z,-0.80
2023-01-19T16:29:09.821Z,-0.80
2023-01-19T16:31:39.971Z,-0.70
2023-01-19T16:34:08.090Z,-0.80
2023-01-19T16:36:40.260Z,-0.90
2023-01-19T16:39:15.479Z,-1.10
2023-01-19T16:41:46.086Z,-1.10
2023-01-19T16:44:16.095Z,-1.10
2023-01-19T16:46:46.700Z,-1.20
2023-01-19T16:49:26.799Z,-1.40
2023-01-19T16:51:55.289Z,-1.50
2023-01-19T16:54:27.554Z,-1.60
2023-01-19T16:56:57.167Z,-1.70
2023-01-19T16:59:26.882Z,-1.90
2023-01-19T17:04:23.764Z,-2.00
2023-01-19T17:06:50.924Z,-2.00
2023-01-19T17:11:46.350Z,-2.20
2023-01-19T17:14:20.427Z,-2.20
2023-01-19T17:16:48.784Z,-2.30
2023-01-19T17:19:20.347Z,-2.30
2023-01-19T17:21:49.311Z,-2.40
2023-01-19T17:26:48.357Z,-2.50
2023-01-19T17:29:16.216Z,-2.50
2023-01-19T17:34:11.585Z,-2.60
2023-01-19T17:39:14.477Z,-2.60
2023-01-19T17:41:41.756Z,-2.60
2023-01-19T17:44:10.552Z,-2.70
2023-01-19T17:46:39.224Z,-2.60
2023-01-19T17:49:08.090Z,-2.60
2023-01-19T17:54:04.455Z,-2.60
2023-01-19T17:56:36.492Z,-2.60
2023-01-19T17:59:06.437Z,-2.60
2023-01-19T18:01:34.824Z,-2.60
2023-01-19T18:04:02.534Z,-2.60
2023-01-19T18:06:29.550Z,-2.60
2023-01-19T18:08:59.208Z,-2.60
2023-01-19T18:11:27.675Z,-2.60
2023-01-19T18:16:27.069Z,-2.60
2023-01-19T18:18:56.277Z,-2.60
2023-01-19T18:21:27.936Z,-2.50
2023-01-19T18:24:06.126Z,-2.50
2023-01-19T18:26:35.455Z,-2.40
2023-01-19T18:29:02.451Z,-2.40
2023-01-19T18:31:29.827Z,-2.20
2023-01-19T18:33:56.931Z,-2.30
2023-01-19T18:36:24.032Z,-2.20
2023-01-19T18:38:51.771Z,-2.20
2023-01-19T18:41:21.755Z,-2.20
2023-01-19T18:43:49.307Z,-2.20
2023-01-19T18:46:16.655Z,-2.10
2023-01-19T18:48:44.327Z,-2.10
2023-01-19T18:51:14.893Z,-2.00
2023-01-19T18:53:43.082Z,-2.00
2023-01-19T18:56:14.211Z,-1.90
2023-01-19T18:58:42.627Z,-1.90
2023-01-19T19:01:36.422Z,-1.90
2023-01-19T19:04:03.643Z,-1.80
2023-01-19T19:09:01.542Z,-1.60
2023-01-19T19:11:28.718Z,-1.60
2023-01-19T19:14:00.831Z,-1.60
2023-01-19T19:16:28.911Z,-1.50
2023-01-19T19:18:55.990Z,-1.50
2023-01-19T19:21:25.358Z,-1.40
2023-01-19T19:23:58.338Z,-1.40
2023-01-19T19:26:28.212Z,-1.30
2023-01-19T19:28:55.514Z,-1.30
2023-01-19T19:31:25.923Z,-1.30
2023-01-19T19:36:25.969Z,-1.20
2023-01-19T19:41:26.784Z,-1.10
2023-01-19T19:43:55.075Z,-1.10
2023-01-19T19:46:25.257Z,-1.10
2023-01-19T19:48:54.114Z,-1.10
2023-01-19T19:51:27.712Z,-1.20
2023-01-19T19:53:58.923Z,-1.20
2023-01-19T19:56:30.108Z,-1.20
2023-01-19T19:58:59.569Z,-1.20
2023-01-19T20:01:33.567Z,-1.20
2023-01-19T20:04:11.746Z,-1.20
2023-01-19T20:06:44.605Z,-1.10
2023-01-19T20:09:13.947Z,-1.10
2023-01-19T20:11:44.038Z,-1.20
2023-01-19T20:14:16.032Z,-1.20
2023-01-19T20:16:43.939Z,-1.20
2023-01-19T20:19:11.410Z,-1.20
2023-01-19T20:21:41.940Z,-1.20
2023-01-19T20:24:19.098Z,-1.20
2023-01-19T20:26:52.075Z,-1.20
2023-01-19T20:29:20.499Z,-1.20
2023-01-19T20:31:56.141Z,-1.20
2023-01-19T20:34:32.939Z,-1.20
2023-01-19T20:37:01.755Z,-1.20
2023-01-19T20:42:02.243Z,-1.20
2023-01-19T20:44:30.042Z,-1.20
2023-01-19T20:46:57.294Z,-1.20
2023-01-19T20:49:24.541Z,-1.20
2023-01-19T20:51:52.155Z,-1.30
2023-01-19T20:54:25.794Z,-1.30
2023-01-19T20:56:53.245Z,-1.30
2023-01-19T21:01:49.279Z,-1.40
2023-01-19T21:04:17.253Z,-1.40
2023-01-19T21:06:44.899Z,-1.40
2023-01-19T21:09:12.178Z,-1.40
2023-01-19T21:11:40.355Z,-1.40
2023-01-19T21:14:08.016Z,-1.40
2023-01-19T21:16:36.735Z,-1.40
2023-01-19T21:19:04.652Z,-1.40
2023-01-19T21:24:02.339Z,-1.40
2023-01-19T21:26:30.406Z,-1.40
2023-01-19T21:29:02.712Z,-1.50
2023-01-19T21:31:30.414Z,-1.50
2023-01-19T21:34:00.315Z,-1.50
2023-01-19T21:39:00.106Z,-1.50
2023-01-19T21:41:30.122Z,-1.50
2023-01-19T21:43:58.792Z,-1.60
2023-01-19T21:46:29.469Z,-1.50
2023-01-19T21:49:03.739Z,-1.50
2023-01-19T21:51:35.117Z,-1.60
2023-01-19T21:54:05.738Z,-1.60
2023-01-19T21:56:34.232Z,-1.60
2023-01-19T21:59:04.219Z,-1.70
2023-01-19T22:01:33.020Z,-1.60
2023-01-19T22:06:28.599Z,-1.60
2023-01-19T22:08:57.761Z,-1.60
2023-01-19T22:13:54.133Z,-1.60
2023-01-19T22:16:23.067Z,-1.50
2023-01-19T22:18:56.283Z,-1.50
2023-01-19T22:21:41.522Z,-1.50
2023-01-19T22:24:11.825Z,-1.50
2023-01-19T22:26:39.786Z,-1.50
2023-01-19T22:29:11.029Z,-1.50
2023-01-19T22:31:39.534Z,-1.40
2023-01-19T22:34:10.728Z,-1.40
2023-01-19T22:36:38.787Z,-1.30
2023-01-19T22:39:11.619Z,-1.30
2023-01-19T22:41:44.058Z,-1.30
2023-01-19T22:44:21.446Z,-1.30
2023-01-19T22:46:50.804Z,-1.30
2023-01-19T22:49:18.626Z,-1.20
2023-01-19T22:51:46.518Z,-1.20
2023-01-19T22:54:14.030Z,-1.20
2023-01-19T22:56:42.491Z,-1.20
2023-01-19T22:59:09.964Z,-1.20
2023-01-19T23:01:42.937Z,-1.20
2023-01-19T23:04:15.312Z,-1.10
2023-01-19T23:09:14.875Z,-1.10
2023-01-19T23:11:51.111Z,-1.00
2023-01-19T23:14:22.018Z,-1.00
2023-01-19T23:19:17.708Z,-1.10
2023-01-19T23:21:45.865Z,-1.00
2023-01-19T23:26:40.469Z,-1.00
2023-01-19T23:29:15.352Z,-1.00
2023-01-19T23:31:50.040Z,-1.10
2023-01-19T23:36:44.977Z,-1.00
2023-01-19T23:39:22.022Z,-1.00
2023-01-19T23:41:50.334Z,-1.00
2023-01-19T23:44:18.191Z,-1.00
2023-01-19T23:49:13.938Z,-1.10
2023-01-19T23:51:41.889Z,-1.00
2023-01-19T23:54:08.932Z,-1.00
2023-01-19T23:56:38.239Z,-1.00
2023-01-19T23:59:15.416Z,-1.00
